Beaver Cove, Canada
Current Conditions -  °F | °C
As of 1:45 PM on Thursday 23 Oct 2014 (Local Time) from CYZT Reporting Station
Rain Showers Rain Showers  
Wind Chill: 50°   Ceiling: 5400
Heat Index: 50°   Visibility: 20mi
Dew Point: 46°   Wind: 7mph
Humidity: 87%   Direction: 260°W
Pressure: 29.73"   Gusts: NA
Location:  50.53°N, 126.87°W
Report Text: CYZT 232045Z 26006KT 200V280 20SM -SHRA FEW011 BKN054 BKN120 OVC220 10/08 A2973 RMK SF1SC5AC2CI1 SF TR SLP068
Loading
Personal Weather Stations






























Interactive Weather Map
Tropical Storm Tracking
New forecast layout! Learn more

10-Day Weather Forecast

Advertisements
Track Severe Weather on mobile